Sandoval, Texas
Current Conditions -  °F | °C
As of 3:58 PM on Friday 28 Nov 2014 (Local Time) from KGRK Reporting Station
Clear Clear  
Wind Chill: 70°   Ceiling: Unl
Heat Index: 70°   Visibility: 9mi
Dew Point: 45°   Wind: 14mph
Humidity: 41%   Direction: 200°SSW
Pressure: 30.1"   Gusts: 23mph
Location:  30.5793°N, 97.5096°W
Report Text: KGRK 282158Z AUTO 20012G20KT 9SM CLR 21/07 A3010 RMK AO2 VIS 1 RWY33 RAB2058E2120B2136 SLP190 P0000 T02100073
Loading
Personal Weather Stations






























Interactive Weather Map New forecast layout! Learn more

10-Day Weather Forecast

Advertisements
Track Severe Weather on mobile